sensor_id;sensor_type;location;lat;lon;timestamp;P1;durP1;ratioP1;P2;durP2;ratioP2
33485;SDS011;19824;52.098;5.004;2023-04-01T05:02:47;33.38;;;15.10;;
33485;SDS011;19824;52.098;5.004;2023-04-01T05:05:30;40.80;;;17.63;;
33485;SDS011;19824;52.098;5.004;2023-04-01T05:08:07;48.42;;;19.38;;
33485;SDS011;19824;52.098;5.004;2023-04-01T05:10:37;38.90;;;18.45;;
33485;SDS011;19824;52.098;5.004;2023-04-01T05:13:14;43.08;;;19.95;;
33485;SDS011;19824;52.098;5.004;2023-04-01T05:15:44;37.92;;;17.98;;
33485;SDS011;19824;52.098;5.004;2023-04-01T05:18:23;35.83;;;17.23;;
33485;SDS011;19824;52.098;5.004;2023-04-01T05:20:54;29.67;;;16.00;;
33485;SDS011;19824;52.098;5.004;2023-04-01T05:23:31;32.33;;;15.45;;
33485;SDS011;19824;52.098;5.004;2023-04-01T05:26:09;32.50;;;15.50;;
33485;SDS011;19824;52.098;5.004;2023-04-01T05:28:41;29.77;;;15.15;;
33485;SDS011;19824;52.098;5.004;2023-04-01T05:31:18;36.25;;;17.17;;
33485;SDS011;19824;52.098;5.004;2023-04-01T05:33:53;38.58;;;17.83;;
33485;SDS011;19824;52.098;5.004;2023-04-01T05:36:30;34.15;;;17.30;;
33485;SDS011;19824;52.098;5.004;2023-04-01T05:39:00;31.35;;;16.48;;
33485;SDS011;19824;52.098;5.004;2023-04-01T05:41:37;35.88;;;18.15;;
33485;SDS011;19824;52.098;5.004;2023-04-01T05:44:10;33.00;;;17.30;;
33485;SDS011;19824;52.098;5.004;2023-04-01T05:46:48;32.88;;;17.15;;
33485;SDS011;19824;52.098;5.004;2023-04-01T05:49:20;33.75;;;17.75;;
33485;SDS011;19824;52.098;5.004;2023-04-01T05:51:58;39.95;;;18.27;;
33485;SDS011;19824;52.098;5.004;2023-04-01T05:54:28;39.28;;;18.38;;
33485;SDS011;19824;52.098;5.004;2023-04-01T05:57:05;42.22;;;20.63;;
33485;SDS011;19824;52.098;5.004;2023-04-01T05:59:35;41.05;;;21.00;;
33485;SDS011;19824;52.098;5.004;2023-04-01T06:02:12;43.88;;;21.35;;
33485;SDS011;19824;52.098;5.004;2023-04-01T06:04:45;49.83;;;22.33;;
33485;SDS011;19824;52.098;5.004;2023-04-01T06:07:22;40.42;;;20.48;;
33485;SDS011;19824;52.098;5.004;2023-04-01T06:09:52;42.50;;;21.27;;
33485;SDS011;19824;52.098;5.004;2023-04-01T06:12:35;41.08;;;21.15;;
33485;SDS011;19824;52.098;5.004;2023-04-01T06:15:33;45.08;;;20.92;;
33485;SDS011;19824;52.098;5.004;2023-04-01T06:18:28;42.33;;;20.80;;
33485;SDS011;19824;52.098;5.004;2023-04-01T06:21:30;42.22;;;20.85;;
33485;SDS011;19824;52.098;5.004;2023-04-01T06:27:53;57.47;;;26.35;;
33485;SDS011;19824;52.098;5.004;2023-04-01T06:31:03;52.90;;;26.08;;
33485;SDS011;19824;52.098;5.004;2023-04-01T06:33:45;55.42;;;26.90;;
33485;SDS011;19824;52.098;5.004;2023-04-01T06:36:42;61.67;;;28.05;;
33485;SDS011;19824;52.098;5.004;2023-04-01T06:39:32;63.15;;;26.65;;
33485;SDS011;19824;52.098;5.004;2023-04-01T06:42:31;58.42;;;25.65;;
33485;SDS011;19824;52.098;5.004;2023-04-01T06:45:23;68.40;;;26.08;;
33485;SDS011;19824;52.098;5.004;2023-04-01T06:48:22;66.38;;;27.27;;
33485;SDS011;19824;52.098;5.004;2023-04-01T06:51:12;57.65;;;24.92;;
33485;SDS011;19824;52.098;5.004;2023-04-01T06:54:04;57.75;;;23.65;;
33485;SDS011;19824;52.098;5.004;2023-04-01T06:56:42;57.08;;;23.17;;
33485;SDS011;19824;52.098;5.004;2023-04-01T06:59:25;57.22;;;23.60;;
33485;SDS011;19824;52.098;5.004;2023-04-01T07:02:05;56.42;;;23.60;;
33485;SDS011;19824;52.098;5.004;2023-04-01T07:04:51;55.42;;;23.52;;
33485;SDS011;19824;52.098;5.004;2023-04-01T07:07:33;59.95;;;23.88;;
33485;SDS011;19824;52.098;5.004;2023-04-01T07:10:13;63.15;;;24.70;;
33485;SDS011;19824;52.098;5.004;2023-04-01T07:12:56;50.42;;;24.50;;
33485;SDS011;19824;52.098;5.004;2023-04-01T07:15:33;62.70;;;25.90;;
33485;SDS011;19824;52.098;5.004;2023-04-01T07:18:15;63.25;;;25.30;;
33485;SDS011;19824;52.098;5.004;2023-04-01T07:20:51;56.75;;;23.48;;
33485;SDS011;19824;52.098;5.004;2023-04-01T07:23:31;52.58;;;22.42;;
33485;SDS011;19824;52.098;5.004;2023-04-01T07:26:18;58.28;;;23.35;;
33485;SDS011;19824;52.098;5.004;2023-04-01T07:28:57;54.25;;;23.23;;
33485;SDS011;19824;52.098;5.004;2023-04-01T07:31:33;55.10;;;22.80;;
33485;SDS011;19824;52.098;5.004;2023-04-01T07:34:35;49.13;;;21.73;;
33485;SDS011;19824;52.098;5.004;2023-04-01T07:37:14;47.13;;;22.60;;
33485;SDS011;19824;52.098;5.004;2023-04-01T07:40:00;49.72;;;22.98;;
33485;SDS011;19824;52.098;5.004;2023-04-01T07:42:53;48.97;;;23.20;;
33485;SDS011;19824;52.098;5.004;2023-04-01T07:45:51;57.17;;;23.40;;
33485;SDS011;19824;52.098;5.004;2023-04-01T07:48:33;55.05;;;24.40;;
33485;SDS011;19824;52.098;5.004;2023-04-01T07:51:20;56.45;;;24.30;;
33485;SDS011;19824;52.098;5.004;2023-04-01T07:53:58;54.00;;;24.60;;
33485;SDS011;19824;52.098;5.004;2023-04-01T07:56:44;45.83;;;21.83;;
33485;SDS011;19824;52.098;5.004;2023-04-01T07:59:24;50.03;;;23.10;;
33485;SDS011;19824;52.098;5.004;2023-04-01T08:02:14;52.15;;;22.73;;
33485;SDS011;19824;52.098;5.004;2023-04-01T08:05:04;46.92;;;22.00;;
33485;SDS011;19824;52.098;5.004;2023-04-01T08:07:55;49.75;;;22.00;;
33485;SDS011;19824;52.098;5.004;2023-04-01T08:10:43;53.55;;;24.20;;
33485;SDS011;19824;52.098;5.004;2023-04-01T08:13:29;54.80;;;24.23;;
33485;SDS011;19824;52.098;5.004;2023-04-01T08:16:18;55.58;;;26.23;;
33485;SDS011;19824;52.098;5.004;2023-04-01T08:18:59;61.58;;;26.45;;
33485;SDS011;19824;52.098;5.004;2023-04-01T08:21:45;56.92;;;25.98;;
33485;SDS011;19824;52.098;5.004;2023-04-01T08:24:22;56.38;;;25.50;;
33485;SDS011;19824;52.098;5.004;2023-04-01T08:27:15;50.05;;;23.73;;
33485;SDS011;19824;52.098;5.004;2023-04-01T08:29:51;52.38;;;24.50;;
33485;SDS011;19824;52.098;5.004;2023-04-01T08:32:38;47.20;;;23.60;;
33485;SDS011;19824;52.098;5.004;2023-04-01T08:35:14;46.35;;;22.83;;
33485;SDS011;19824;52.098;5.004;2023-04-01T08:38:05;43.80;;;21.83;;
33485;SDS011;19824;52.098;5.004;2023-04-01T08:40:57;34.92;;;17.73;;
33485;SDS011;19824;52.098;5.004;2023-04-01T08:47:24;40.53;;;20.53;;
33485;SDS011;19824;52.098;5.004;2023-04-01T08:50:40;45.00;;;20.88;;
33485;SDS011;19824;52.098;5.004;2023-04-01T08:54:04;39.13;;;19.20;;
33485;SDS011;19824;52.098;5.004;2023-04-01T08:56:59;34.35;;;18.30;;
33485;SDS011;19824;52.098;5.004;2023-04-01T08:59:46;33.63;;;16.77;;
33485;SDS011;19824;52.098;5.004;2023-04-01T09:05:59;33.45;;;18.63;;
33485;SDS011;19824;52.098;5.004;2023-04-01T09:09:01;31.13;;;16.30;;
33485;SDS011;19824;52.098;5.004;2023-04-01T09:12:17;29.35;;;15.73;;
33485;SDS011;19824;52.098;5.004;2023-04-01T09:15:20;33.78;;;16.63;;
33485;SDS011;19824;52.098;5.004;2023-04-01T09:18:16;32.83;;;18.50;;
33485;SDS011;19824;52.098;5.004;2023-04-01T09:24:43;37.00;;;19.58;;
33485;SDS011;19824;52.098;5.004;2023-04-01T09:27:40;32.35;;;18.40;;
33485;SDS011;19824;52.098;5.004;2023-04-01T09:30:34;33.22;;;18.95;;
33485;SDS011;19824;52.098;5.004;2023-04-01T09:33:37;32.55;;;18.20;;
33485;SDS011;19824;52.098;5.004;2023-04-01T09:36:43;31.77;;;17.52;;
33485;SDS011;19824;52.098;5.004;2023-04-01T09:39:29;31.35;;;18.02;;
33485;SDS011;19824;52.098;5.004;2023-04-01T09:42:19;31.38;;;17.98;;
33485;SDS011;19824;52.098;5.004;2023-04-01T09:45:16;27.92;;;17.48;;
33485;SDS011;19824;52.098;5.004;2023-04-01T09:48:15;29.27;;;18.10;;
33485;SDS011;19824;52.098;5.004;2023-04-01T09:51:43;27.42;;;16.20;;
33485;SDS011;19824;52.098;5.004;2023-04-01T09:54:33;27.42;;;15.18;;
33485;SDS011;19824;52.098;5.004;2023-04-01T09:57:50;23.77;;;12.57;;
33485;SDS011;19824;52.098;5.004;2023-04-01T10:00:52;16.42;;;10.00;;
33485;SDS011;19824;52.098;5.004;2023-04-01T10:04:00;18.17;;;10.63;;
33485;SDS011;19824;52.098;5.004;2023-04-01T10:07:31;12.88;;;8.40;;
33485;SDS011;19824;52.098;5.004;2023-04-01T10:10:47;14.10;;;8.50;;
33485;SDS011;19824;52.098;5.004;2023-04-01T10:13:52;14.70;;;9.18;;
33485;SDS011;19824;52.098;5.004;2023-04-01T10:17:06;14.65;;;9.05;;
33485;SDS011;19824;52.098;5.004;2023-04-01T10:23:32;13.40;;;9.43;;
33485;SDS011;19824;52.098;5.004;2023-04-01T10:26:56;14.70;;;9.90;;
33485;SDS011;19824;52.098;5.004;2023-04-01T10:36:55;13.30;;;10.43;;
33485;SDS011;19824;52.098;5.004;2023-04-01T10:39:34;14.55;;;10.13;;
33485;SDS011;19824;52.098;5.004;2023-04-01T10:42:45;13.43;;;9.40;;
33485;SDS011;19824;52.098;5.004;2023-04-01T10:46:02;11.55;;;8.57;;
33485;SDS011;19824;52.098;5.004;2023-04-01T10:49:09;10.93;;;8.32;;
33485;SDS011;19824;52.098;5.004;2023-04-01T10:52:21;10.63;;;9.02;;
33485;SDS011;19824;52.098;5.004;2023-04-01T10:55:30;11.27;;;7.88;;
33485;SDS011;19824;52.098;5.004;2023-04-01T10:58:28;9.18;;;7.63;;
33485;SDS011;19824;52.098;5.004;2023-04-01T11:15:26;9.70;;;6.25;;
33485;SDS011;19824;52.098;5.004;2023-04-01T11:21:50;7.68;;;5.40;;
33485;SDS011;19824;52.098;5.004;2023-04-01T11:28:38;9.85;;;6.57;;
33485;SDS011;19824;52.098;5.004;2023-04-01T11:34:43;8.07;;;6.43;;
33485;SDS011;19824;52.098;5.004;2023-04-01T11:37:32;8.52;;;6.25;;
33485;SDS011;19824;52.098;5.004;2023-04-01T11:40:20;7.28;;;5.38;;
33485;SDS011;19824;52.098;5.004;2023-04-01T11:46:00;7.70;;;5.63;;
33485;SDS011;19824;52.098;5.004;2023-04-01T11:48:50;7.53;;;5.85;;
33485;SDS011;19824;52.098;5.004;2023-04-01T11:51:41;6.82;;;5.70;;
33485;SDS011;19824;52.098;5.004;2023-04-01T11:54:41;7.95;;;6.15;;
33485;SDS011;19824;52.098;5.004;2023-04-01T12:01:13;7.38;;;5.82;;
33485;SDS011;19824;52.098;5.004;2023-04-01T12:07:48;11.70;;;6.47;;
33485;SDS011;19824;52.098;5.004;2023-04-01T12:10:33;9.55;;;7.15;;
33485;SDS011;19824;52.098;5.004;2023-04-01T12:13:20;11.35;;;7.10;;
33485;SDS011;19824;52.098;5.004;2023-04-01T12:16:15;22.98;;;7.55;;
33485;SDS011;19824;52.098;5.004;2023-04-01T12:19:14;9.85;;;7.07;;
33485;SDS011;19824;52.098;5.004;2023-04-01T12:21:58;8.98;;;6.70;;
33485;SDS011;19824;52.098;5.004;2023-04-01T12:25:00;12.10;;;7.53;;
33485;SDS011;19824;52.098;5.004;2023-04-01T12:27:49;12.25;;;8.48;;
33485;SDS011;19824;52.098;5.004;2023-04-01T12:30:55;11.43;;;8.90;;
33485;SDS011;19824;52.098;5.004;2023-04-01T12:33:55;11.38;;;8.25;;
33485;SDS011;19824;52.098;5.004;2023-04-01T12:37:00;9.77;;;7.68;;
33485;SDS011;19824;52.098;5.004;2023-04-01T12:39:51;10.48;;;7.07;;
33485;SDS011;19824;52.098;5.004;2023-04-01T12:42:43;11.10;;;7.32;;
33485;SDS011;19824;52.098;5.004;2023-04-01T12:45:35;10.50;;;7.50;;
33485;SDS011;19824;52.098;5.004;2023-04-01T12:51:40;6.75;;;4.82;;
33485;SDS011;19824;52.098;5.004;2023-04-01T12:57:45;7.03;;;5.20;;
33485;SDS011;19824;52.098;5.004;2023-04-01T13:00:40;6.28;;;4.97;;
